Ops Hamburg — A8VS9 — position and weather

sailwx.info

Track history (hours):
 
Tides and Currents Weather Stations Pressure Air Temp Water Temp Dewpoint Dewpoint Depression Visibility Wind Speed Wind Dir Waves Ship Positions

Ops Hamburg

Last reported at 2016-Dec-02 21:32 UTC. Time now 2016-Dec-06 12:11 UTC.
Position N 36°13' E 013°33'.

Length 148 m; draft 7.9 m.

Type: Cargo ship. MMSI: 636092040.

Date/timePositionNaut miles runAvg speedWind from/ knotsBaromVisibWave heightAir tempDewpointWater temp
2016-Dec-02 21:32N 36°13' E 013°33'1111.1
2016-Dec-02 20:33N 36°07' E 013°44'1111.2
2016-Dec-02 19:32N 36°00' E 013°56'1111.3
2016-Dec-02 18:33N 35°54' E 014°07'1111.4
2016-Dec-02 17:33N 35°47' E 014°18'1110.5
2016-Dec-02 16:33N 35°45' E 014°31'4 3.6
2016-Dec-02 15:31N 35°49' E 014°32'0 0.0
2016-Dec-02 09:31N 35°49' E 014°32'0 0.0
2016-Dec-02 08:16N 35°49' E 014°32'0 0.0
2016-Dec-02 07:31N 35°49' E 014°32'0 0.0
2016-Dec-01 21:23N 35°49' E 014°32'0 0.0
2016-Dec-01 15:11N 35°49' E 014°32'0 0.0
2016-Dec-01 14:15N 35°49' E 014°32'0 0.0
2016-Dec-01 13:33N 35°49' E 014°32'1 0.6
2016-Dec-01 12:33N 35°49' E 014°33'6 6.1
2016-Dec-01 11:33N 35°43' E 014°34'3 3.1
2016-Dec-01 10:33N 35°40' E 014°33'2 1.5
2016-Dec-01 09:25N 35°39' E 014°31'6 6.8
2016-Dec-01 08:33N 35°35' E 014°26'1 1.0
2016-Dec-01 07:33N 35°36' E 014°27'1 1.1
2016-Dec-01 06:33N 35°37' E 014°27'1 1.1
2016-Dec-01 05:33N 35°38' E 014°28'1 1.2
2016-Dec-01 04:33N 35°39' E 014°29'1 1.2
2016-Dec-01 03:33N 35°40' E 014°29'10 9.9
2016-Dec-01 02:33N 35°46' E 014°20'1110.8
2016-Dec-01 01:33N 35°52' E 014°08'1111.2
2016-Dec-01 00:33N 35°58' E 013°57'1111.1
2016-Nov-30 23:33N 36°04' E 013°45'  
Track history (hours):
 
Tides and Currents Weather Stations Pressure Air Temp Water Temp Dewpoint Dewpoint Depression Visibility Wind Speed Wind Dir Waves Ship Positions

Ops Hamburg

Last reported at 2016-Dec-02 21:32 UTC. Time now 2016-Dec-06 12:11 UTC.
Position N 36°13' E 013°33'.

Length 148 m; draft 7.9 m.

Type: Cargo ship. MMSI: 636092040.

Date/timePositionNaut miles runAvg speedWind from/ knotsBaromVisibWave heightAir tempDewpointWater temp
2016-Dec-02 21:32N 36°13' E 013°33'1111.1
2016-Dec-02 20:33N 36°07' E 013°44'1111.2
2016-Dec-02 19:32N 36°00' E 013°56'1111.3
2016-Dec-02 18:33N 35°54' E 014°07'1111.4
2016-Dec-02 17:33N 35°47' E 014°18'1110.5
2016-Dec-02 16:33N 35°45' E 014°31'4 3.6
2016-Dec-02 15:31N 35°49' E 014°32'0 0.0
2016-Dec-02 09:31N 35°49' E 014°32'0 0.0
2016-Dec-02 08:16N 35°49' E 014°32'0 0.0
2016-Dec-02 07:31N 35°49' E 014°32'0 0.0
2016-Dec-01 21:23N 35°49' E 014°32'0 0.0
2016-Dec-01 15:11N 35°49' E 014°32'0 0.0
2016-Dec-01 14:15N 35°49' E 014°32'0 0.0
2016-Dec-01 13:33N 35°49' E 014°32'1 0.6
2016-Dec-01 12:33N 35°49' E 014°33'6 6.1
2016-Dec-01 11:33N 35°43' E 014°34'3 3.1
2016-Dec-01 10:33N 35°40' E 014°33'2 1.5
2016-Dec-01 09:25N 35°39' E 014°31'6 6.8
2016-Dec-01 08:33N 35°35' E 014°26'1 1.0
2016-Dec-01 07:33N 35°36' E 014°27'1 1.1
2016-Dec-01 06:33N 35°37' E 014°27'1 1.1
2016-Dec-01 05:33N 35°38' E 014°28'1 1.2
2016-Dec-01 04:33N 35°39' E 014°29'1 1.2
2016-Dec-01 03:33N 35°40' E 014°29'10 9.9
2016-Dec-01 02:33N 35°46' E 014°20'1110.8
2016-Dec-01 01:33N 35°52' E 014°08'1111.2
2016-Dec-01 00:33N 35°58' E 013°57'1111.1
2016-Nov-30 23:33N 36°04' E 013°45'  

Dump ship's entire track history